Metsaborg — PBFL — position and weather

sailwx.info

Track history (hours):
 
Tides and Currents Weather Stations Pressure Air Temp Water Temp Dewpoint Dewpoint Depression Visibility Wind Speed Wind Dir Waves Ship Positions

Metsaborg

Last reported at 2014-Sep-01 07:19 UTC. Time now 2014-Sep-01 21:23 UTC.
Position N 50°44' E 001°34'.

Length 134 m; draft 4.5 m.

Type: Cargo ship. MMSI: 246270000.

Date/timePositionNaut miles runAvg speedWind from/ knotsBaromVisibWave heightAir tempDewpointWater temp
2014-Sep-01 07:19N 50°44' E 001°34'0 0.0
2014-Sep-01 06:31N 50°44' E 001°34'0 0.0
2014-Sep-01 05:28N 50°44' E 001°34'0 0.0
2014-Sep-01 04:33N 50°44' E 001°34'0 0.0
2014-Sep-01 03:15N 50°44' E 001°34'0 0.0
2014-Sep-01 02:32N 50°44' E 001°34'0 0.0
2014-Sep-01 01:29N 50°44' E 001°34'0 0.0
2014-Sep-01 00:26N 50°44' E 001°34'0 0.0
2014-Aug-31 23:28N 50°44' E 001°34'0 0.0
2014-Aug-31 22:28N 50°44' E 001°34'0 0.0
2014-Aug-31 21:33N 50°44' E 001°34'0 0.0
2014-Aug-31 20:24N 50°44' E 001°34'  
2014-Aug-28 05:30N 50°58' E 001°40'6 6.8
2014-Aug-28 04:33N 51°03' E 001°46'8 8.1
2014-Aug-28 03:33N 51°11' E 001°43'1010.5
2014-Aug-28 02:33N 51°19' E 001°52'9 9.0
2014-Aug-28 01:33N 51°24' E 002°05'1511.5
2014-Aug-28 00:14N 51°23' E 002°29'812.0
2014-Aug-27 23:33N 51°23' E 002°42'1111.0
2014-Aug-27 22:33N 51°24' E 002°60'1212.2
2014-Aug-27 21:33N 51°25' E 003°20'1312.7
2014-Aug-27 20:34N 51°27' E 003°39'1111.4
2014-Aug-27 19:33N 51°23' E 003°57'10 9.8
2014-Aug-27 18:34N 51°23' E 004°13'8 8.2
2014-Aug-27 17:34N 51°17' E 004°20'2 2.2
2014-Aug-27 16:33N 51°16' E 004°23'1 0.8
2014-Aug-27 15:33N 51°15' E 004°24'0 0.0
2014-Aug-27 14:33N 51°15' E 004°24'0 0.0
2014-Aug-27 13:33N 51°15' E 004°24'0 0.0
2014-Aug-27 12:34N 51°15' E 004°24'0 0.0
2014-Aug-27 11:33N 51°15' E 004°24'0 0.0
2014-Aug-27 10:33N 51°15' E 004°24'0 0.0
2014-Aug-27 09:33N 51°15' E 004°24'0 0.0
2014-Aug-27 08:33N 51°15' E 004°24'0 0.0
2014-Aug-27 07:33N 51°15' E 004°24'0 0.0
2014-Aug-27 06:33N 51°15' E 004°24'0 0.0
2014-Aug-27 05:33N 51°15' E 004°24'0 0.0
2014-Aug-27 04:34N 51°15' E 004°24'0 0.0
2014-Aug-27 03:34N 51°15' E 004°24'0 0.0
2014-Aug-27 02:33N 51°15' E 004°24'0 0.0
2014-Aug-27 01:33N 51°15' E 004°24'0 0.0
2014-Aug-27 00:34N 51°15' E 004°24'0 0.0
2014-Aug-26 23:33N 51°15' E 004°24'0 0.0
2014-Aug-26 22:33N 51°15' E 004°24'0 0.0
2014-Aug-26 21:33N 51°15' E 004°24'0 0.0
2014-Aug-26 20:33N 51°15' E 004°24'0 0.0
2014-Aug-26 19:33N 51°15' E 004°24'0 0.0
2014-Aug-26 18:33N 51°15' E 004°24'0 0.0
2014-Aug-26 17:33N 51°15' E 004°24'0 0.0
2014-Aug-26 16:33N 51°15' E 004°24'0 0.0
2014-Aug-26 15:33N 51°15' E 004°24'0 0.0
2014-Aug-26 14:34N 51°15' E 004°24'0 0.0
2014-Aug-26 13:33N 51°15' E 004°24'0 0.0
2014-Aug-26 12:33N 51°15' E 004°24'0 0.0
2014-Aug-26 11:33N 51°15' E 004°24'0 0.0
2014-Aug-26 10:34N 51°15' E 004°24'0 0.0
2014-Aug-26 09:33N 51°15' E 004°24'0 0.0
2014-Aug-26 08:33N 51°15' E 004°24'0 0.0
2014-Aug-26 07:34N 51°15' E 004°24'0 0.0
2014-Aug-26 06:33N 51°15' E 004°24'0 0.0
2014-Aug-26 05:34N 51°15' E 004°24'0 0.0
2014-Aug-26 04:33N 51°15' E 004°24'0 0.0
2014-Aug-26 03:33N 51°15' E 004°24'0 0.0
2014-Aug-26 02:34N 51°15' E 004°24'0 0.0
2014-Aug-26 01:34N 51°15' E 004°24'0 0.0
2014-Aug-26 00:33N 51°15' E 004°24'0 0.0
2014-Aug-25 23:34N 51°15' E 004°24'0 0.0
2014-Aug-25 22:34N 51°15' E 004°24'0 0.0
2014-Aug-25 21:33N 51°15' E 004°24'0 0.0
2014-Aug-25 20:33N 51°15' E 004°24'0 0.0
2014-Aug-25 19:34N 51°15' E 004°24'0 0.0
2014-Aug-25 18:34N 51°15' E 004°24'0 0.0
2014-Aug-25 17:33N 51°15' E 004°24'0 0.0
2014-Aug-25 16:34N 51°15' E 004°24'0 0.0
2014-Aug-25 15:34N 51°15' E 004°24'0 0.0
2014-Aug-25 14:34N 51°15' E 004°24'0 0.0
2014-Aug-25 13:34N 51°15' E 004°24'0 0.0
2014-Aug-25 12:34N 51°15' E 004°24'0 0.0
2014-Aug-25 11:34N 51°15' E 004°24'0 0.0
2014-Aug-25 10:34N 51°15' E 004°24'0 0.0
2014-Aug-25 09:34N 51°15' E 004°24'0 0.0
2014-Aug-25 08:34N 51°15' E 004°24'0 0.0
2014-Aug-25 07:34N 51°15' E 004°24'0 0.0
2014-Aug-25 06:34N 51°15' E 004°24'0 0.0
2014-Aug-25 05:34N 51°15' E 004°24'0 0.0
2014-Aug-25 04:34N 51°15' E 004°24'0 0.0
2014-Aug-25 03:34N 51°15' E 004°24'0 0.0
2014-Aug-25 02:34N 51°15' E 004°24'0 0.0
2014-Aug-25 01:34N 51°15' E 004°24'0 0.0
2014-Aug-25 00:34N 51°15' E 004°24'0 0.0
2014-Aug-24 23:33N 51°15' E 004°24'0 0.0
2014-Aug-24 22:34N 51°15' E 004°24'0 0.0
2014-Aug-24 21:33N 51°15' E 004°24'0 0.0
2014-Aug-24 20:34N 51°15' E 004°24'0 0.0
2014-Aug-24 19:34N 51°15' E 004°24'0 0.0
2014-Aug-24 18:34N 51°15' E 004°24'0 0.0
2014-Aug-24 17:34N 51°15' E 004°24'0 0.0
2014-Aug-24 16:34N 51°15' E 004°24'0 0.0
2014-Aug-24 15:34N 51°15' E 004°24'0 0.0
2014-Aug-24 14:34N 51°15' E 004°24'0 0.0
2014-Aug-24 13:34N 51°15' E 004°24'0 0.0
2014-Aug-24 12:34N 51°15' E 004°24'0 0.0
2014-Aug-24 11:34N 51°15' E 004°24'0 0.0
2014-Aug-24 10:33N 51°15' E 004°24'0 0.0
2014-Aug-24 09:34N 51°15' E 004°24'0 0.0
2014-Aug-24 08:33N 51°15' E 004°24'0 0.0
2014-Aug-24 07:34N 51°15' E 004°24'0 0.0
2014-Aug-24 06:34N 51°15' E 004°24'0 0.0
2014-Aug-24 05:33N 51°15' E 004°24'0 0.0
2014-Aug-24 04:34N 51°15' E 004°24'0 0.0
2014-Aug-24 03:34N 51°15' E 004°24'0 0.0
2014-Aug-24 02:33N 51°15' E 004°24'0 0.0
2014-Aug-24 01:33N 51°15' E 004°24'0 0.0
2014-Aug-24 00:33N 51°15' E 004°24'0 0.0
2014-Aug-23 23:33N 51°15' E 004°24'0 0.0
2014-Aug-23 22:33N 51°15' E 004°24'0 0.0
2014-Aug-23 21:33N 51°15' E 004°24'0 0.0
2014-Aug-23 20:33N 51°15' E 004°24'0 0.0
2014-Aug-23 19:33N 51°15' E 004°24'0 0.0
2014-Aug-23 03:33N 51°15' E 004°24'0 0.0
2014-Aug-23 02:33N 51°15' E 004°24'0 0.0
2014-Aug-23 01:33N 51°15' E 004°24'0 0.0
2014-Aug-23 00:33N 51°15' E 004°24'0 0.0
2014-Aug-22 23:33N 51°15' E 004°24'0 0.0
2014-Aug-22 22:33N 51°15' E 004°24'0 0.0
2014-Aug-22 21:33N 51°15' E 004°24'0 0.0
2014-Aug-22 20:33N 51°15' E 004°24'0 0.0
2014-Aug-22 19:33N 51°15' E 004°24'0 0.0
2014-Aug-22 18:33N 51°15' E 004°24'0 0.0
2014-Aug-22 17:33N 51°15' E 004°24'0 0.0
2014-Aug-22 16:33N 51°15' E 004°24'0 0.0
2014-Aug-22 15:33N 51°15' E 004°24'0 0.0
2014-Aug-22 14:33N 51°15' E 004°24'0 0.0
2014-Aug-22 13:33N 51°15' E 004°24'0 0.0
2014-Aug-22 12:33N 51°15' E 004°24'0 0.0
2014-Aug-22 11:33N 51°15' E 004°24'0 0.0
2014-Aug-22 10:33N 51°15' E 004°24'0 0.0
2014-Aug-22 09:33N 51°15' E 004°24'0 0.0
2014-Aug-22 08:33N 51°15' E 004°24'0 0.0
2014-Aug-22 07:33N 51°15' E 004°24'  
Track history (hours):
 
Tides and Currents Weather Stations Pressure Air Temp Water Temp Dewpoint Dewpoint Depression Visibility Wind Speed Wind Dir Waves Ship Positions

Metsaborg

Last reported at 2014-Sep-01 07:19 UTC. Time now 2014-Sep-01 21:23 UTC.
Position N 50°44' E 001°34'.

Length 134 m; draft 4.5 m.

Type: Cargo ship. MMSI: 246270000.

Date/timePositionNaut miles runAvg speedWind from/ knotsBaromVisibWave heightAir tempDewpointWater temp
2014-Sep-01 07:19N 50°44' E 001°34'0 0.0
2014-Sep-01 06:31N 50°44' E 001°34'0 0.0
2014-Sep-01 05:28N 50°44' E 001°34'0 0.0
2014-Sep-01 04:33N 50°44' E 001°34'0 0.0
2014-Sep-01 03:15N 50°44' E 001°34'0 0.0
2014-Sep-01 02:32N 50°44' E 001°34'0 0.0
2014-Sep-01 01:29N 50°44' E 001°34'0 0.0
2014-Sep-01 00:26N 50°44' E 001°34'0 0.0
2014-Aug-31 23:28N 50°44' E 001°34'0 0.0
2014-Aug-31 22:28N 50°44' E 001°34'0 0.0
2014-Aug-31 21:33N 50°44' E 001°34'0 0.0
2014-Aug-31 20:24N 50°44' E 001°34'  
2014-Aug-28 05:30N 50°58' E 001°40'6 6.8
2014-Aug-28 04:33N 51°03' E 001°46'8 8.1
2014-Aug-28 03:33N 51°11' E 001°43'1010.5
2014-Aug-28 02:33N 51°19' E 001°52'9 9.0
2014-Aug-28 01:33N 51°24' E 002°05'1511.5
2014-Aug-28 00:14N 51°23' E 002°29'812.0
2014-Aug-27 23:33N 51°23' E 002°42'1111.0
2014-Aug-27 22:33N 51°24' E 002°60'1212.2
2014-Aug-27 21:33N 51°25' E 003°20'1312.7
2014-Aug-27 20:34N 51°27' E 003°39'1111.4
2014-Aug-27 19:33N 51°23' E 003°57'10 9.8
2014-Aug-27 18:34N 51°23' E 004°13'8 8.2
2014-Aug-27 17:34N 51°17' E 004°20'2 2.2
2014-Aug-27 16:33N 51°16' E 004°23'1 0.8
2014-Aug-27 15:33N 51°15' E 004°24'0 0.0
2014-Aug-27 14:33N 51°15' E 004°24'0 0.0
2014-Aug-27 13:33N 51°15' E 004°24'0 0.0
2014-Aug-27 12:34N 51°15' E 004°24'0 0.0
2014-Aug-27 11:33N 51°15' E 004°24'0 0.0
2014-Aug-27 10:33N 51°15' E 004°24'0 0.0
2014-Aug-27 09:33N 51°15' E 004°24'0 0.0
2014-Aug-27 08:33N 51°15' E 004°24'0 0.0
2014-Aug-27 07:33N 51°15' E 004°24'0 0.0
2014-Aug-27 06:33N 51°15' E 004°24'0 0.0
2014-Aug-27 05:33N 51°15' E 004°24'0 0.0
2014-Aug-27 04:34N 51°15' E 004°24'0 0.0
2014-Aug-27 03:34N 51°15' E 004°24'0 0.0
2014-Aug-27 02:33N 51°15' E 004°24'0 0.0
2014-Aug-27 01:33N 51°15' E 004°24'0 0.0
2014-Aug-27 00:34N 51°15' E 004°24'0 0.0
2014-Aug-26 23:33N 51°15' E 004°24'0 0.0
2014-Aug-26 22:33N 51°15' E 004°24'0 0.0
2014-Aug-26 21:33N 51°15' E 004°24'0 0.0
2014-Aug-26 20:33N 51°15' E 004°24'0 0.0
2014-Aug-26 19:33N 51°15' E 004°24'0 0.0
2014-Aug-26 18:33N 51°15' E 004°24'0 0.0
2014-Aug-26 17:33N 51°15' E 004°24'0 0.0
2014-Aug-26 16:33N 51°15' E 004°24'0 0.0
2014-Aug-26 15:33N 51°15' E 004°24'0 0.0
2014-Aug-26 14:34N 51°15' E 004°24'0 0.0
2014-Aug-26 13:33N 51°15' E 004°24'0 0.0
2014-Aug-26 12:33N 51°15' E 004°24'0 0.0
2014-Aug-26 11:33N 51°15' E 004°24'0 0.0
2014-Aug-26 10:34N 51°15' E 004°24'0 0.0
2014-Aug-26 09:33N 51°15' E 004°24'0 0.0
2014-Aug-26 08:33N 51°15' E 004°24'0 0.0
2014-Aug-26 07:34N 51°15' E 004°24'0 0.0
2014-Aug-26 06:33N 51°15' E 004°24'0 0.0
2014-Aug-26 05:34N 51°15' E 004°24'0 0.0
2014-Aug-26 04:33N 51°15' E 004°24'0 0.0
2014-Aug-26 03:33N 51°15' E 004°24'0 0.0
2014-Aug-26 02:34N 51°15' E 004°24'0 0.0
2014-Aug-26 01:34N 51°15' E 004°24'0 0.0
2014-Aug-26 00:33N 51°15' E 004°24'0 0.0
2014-Aug-25 23:34N 51°15' E 004°24'0 0.0
2014-Aug-25 22:34N 51°15' E 004°24'0 0.0
2014-Aug-25 21:33N 51°15' E 004°24'0 0.0
2014-Aug-25 20:33N 51°15' E 004°24'0 0.0
2014-Aug-25 19:34N 51°15' E 004°24'0 0.0
2014-Aug-25 18:34N 51°15' E 004°24'0 0.0
2014-Aug-25 17:33N 51°15' E 004°24'0 0.0
2014-Aug-25 16:34N 51°15' E 004°24'0 0.0
2014-Aug-25 15:34N 51°15' E 004°24'0 0.0
2014-Aug-25 14:34N 51°15' E 004°24'0 0.0
2014-Aug-25 13:34N 51°15' E 004°24'0 0.0
2014-Aug-25 12:34N 51°15' E 004°24'0 0.0
2014-Aug-25 11:34N 51°15' E 004°24'0 0.0
2014-Aug-25 10:34N 51°15' E 004°24'0 0.0
2014-Aug-25 09:34N 51°15' E 004°24'0 0.0
2014-Aug-25 08:34N 51°15' E 004°24'0 0.0
2014-Aug-25 07:34N 51°15' E 004°24'0 0.0
2014-Aug-25 06:34N 51°15' E 004°24'0 0.0
2014-Aug-25 05:34N 51°15' E 004°24'0 0.0
2014-Aug-25 04:34N 51°15' E 004°24'0 0.0
2014-Aug-25 03:34N 51°15' E 004°24'0 0.0
2014-Aug-25 02:34N 51°15' E 004°24'0 0.0
2014-Aug-25 01:34N 51°15' E 004°24'0 0.0
2014-Aug-25 00:34N 51°15' E 004°24'0 0.0
2014-Aug-24 23:33N 51°15' E 004°24'0 0.0
2014-Aug-24 22:34N 51°15' E 004°24'0 0.0
2014-Aug-24 21:33N 51°15' E 004°24'0 0.0
2014-Aug-24 20:34N 51°15' E 004°24'0 0.0
2014-Aug-24 19:34N 51°15' E 004°24'0 0.0
2014-Aug-24 18:34N 51°15' E 004°24'0 0.0
2014-Aug-24 17:34N 51°15' E 004°24'0 0.0
2014-Aug-24 16:34N 51°15' E 004°24'0 0.0
2014-Aug-24 15:34N 51°15' E 004°24'0 0.0
2014-Aug-24 14:34N 51°15' E 004°24'0 0.0
2014-Aug-24 13:34N 51°15' E 004°24'0 0.0
2014-Aug-24 12:34N 51°15' E 004°24'0 0.0
2014-Aug-24 11:34N 51°15' E 004°24'0 0.0
2014-Aug-24 10:33N 51°15' E 004°24'0 0.0
2014-Aug-24 09:34N 51°15' E 004°24'0 0.0
2014-Aug-24 08:33N 51°15' E 004°24'0 0.0
2014-Aug-24 07:34N 51°15' E 004°24'0 0.0
2014-Aug-24 06:34N 51°15' E 004°24'0 0.0
2014-Aug-24 05:33N 51°15' E 004°24'0 0.0
2014-Aug-24 04:34N 51°15' E 004°24'0 0.0
2014-Aug-24 03:34N 51°15' E 004°24'0 0.0
2014-Aug-24 02:33N 51°15' E 004°24'0 0.0
2014-Aug-24 01:33N 51°15' E 004°24'0 0.0
2014-Aug-24 00:33N 51°15' E 004°24'0 0.0
2014-Aug-23 23:33N 51°15' E 004°24'0 0.0
2014-Aug-23 22:33N 51°15' E 004°24'0 0.0
2014-Aug-23 21:33N 51°15' E 004°24'0 0.0
2014-Aug-23 20:33N 51°15' E 004°24'0 0.0
2014-Aug-23 19:33N 51°15' E 004°24'0 0.0
2014-Aug-23 03:33N 51°15' E 004°24'0 0.0
2014-Aug-23 02:33N 51°15' E 004°24'0 0.0
2014-Aug-23 01:33N 51°15' E 004°24'0 0.0
2014-Aug-23 00:33N 51°15' E 004°24'0 0.0
2014-Aug-22 23:33N 51°15' E 004°24'0 0.0
2014-Aug-22 22:33N 51°15' E 004°24'0 0.0
2014-Aug-22 21:33N 51°15' E 004°24'0 0.0
2014-Aug-22 20:33N 51°15' E 004°24'0 0.0
2014-Aug-22 19:33N 51°15' E 004°24'0 0.0
2014-Aug-22 18:33N 51°15' E 004°24'0 0.0
2014-Aug-22 17:33N 51°15' E 004°24'0 0.0
2014-Aug-22 16:33N 51°15' E 004°24'0 0.0
2014-Aug-22 15:33N 51°15' E 004°24'0 0.0
2014-Aug-22 14:33N 51°15' E 004°24'0 0.0
2014-Aug-22 13:33N 51°15' E 004°24'0 0.0
2014-Aug-22 12:33N 51°15' E 004°24'0 0.0
2014-Aug-22 11:33N 51°15' E 004°24'0 0.0
2014-Aug-22 10:33N 51°15' E 004°24'0 0.0
2014-Aug-22 09:33N 51°15' E 004°24'0 0.0
2014-Aug-22 08:33N 51°15' E 004°24'0 0.0
2014-Aug-22 07:33N 51°15' E 004°24'  

Dump ship's entire track history